LTAF/ADA METAR and TAF weather

Enter ICAO airport designator
Station Type Date Time Source
LTAF METAR 2019/06/27 09:50 UTC NOAA

LTAF 270950Z 18004KT 110V230 9999 SCT035 33/24 Q1006 NOSIG


Station Type Date Time Source
LTAF Decoded METAR 2019/06/27 09:50 UTC NOAA

Adana / Sakirpasa, Turkey (LTAF) 36-59N 035-18E 20M
Jun 27, 2019 - 05:50 AM EDT / 2019.06.27 0950 UTC
Wind: from the S (180 degrees) at 5 MPH (4 KT) (direction variable):0
Visibility: greater than 7 mile(s):0
Sky conditions: partly cloudy
Temperature: 91 F (33 C)
Heat index: 101.5 F (38.6 C):1
Dew Point: 75 F (24 C)
Relative Humidity: 59%
Pressure (altimeter): 29.71 in. Hg (1006 hPa)
ob: LTAF 270950Z 18004KT 110V230 9999 SCT035 33/24 Q1006 NOSIG
cycle: 10

Station Type Date Time Source
LTAF TAF 2019/06/27 06:01 UTC NOAA

TAF LTAF 270440Z 2706/2806 VRB02KT CAVOK
BECMG 2708/2710 21012KT
BECMG 2718/2720 VRB02KT SCT035
BECMG 2722/2724 4000 BR
TEMPO 2800/2804 0600 FG BKN006
BECMG 2804/2806 9999 NSW

Example: see airport list